createdAt,value
2019-05-22T00:00:15.136Z,55.00
2019-05-22T00:05:11.895Z,55.70
2019-05-22T00:10:02.837Z,55.00
2019-05-22T00:14:54.498Z,54.70
2019-05-22T00:19:50.611Z,54.20
2019-05-22T00:24:42.081Z,54.50
2019-05-22T00:44:08.887Z,53.40
2019-05-22T00:49:01.076Z,52.60
2019-05-22T00:53:52.921Z,53.40
2019-05-22T00:58:44.549Z,52.80
2019-05-22T01:03:36.752Z,53.40
2019-05-22T01:08:31.421Z,53.20
2019-05-22T01:13:23.504Z,53.30
2019-05-22T01:18:14.893Z,52.70
2019-05-22T01:23:06.267Z,52.40
2019-05-22T01:27:58.012Z,53.50
2019-05-22T01:32:49.487Z,52.50
2019-05-22T01:47:23.856Z,52.10
2019-05-22T01:52:15.302Z,53.20
2019-05-22T01:57:09.511Z,52.80
2019-05-22T02:02:11.090Z,52.90
2019-05-22T02:07:02.859Z,53.00
2019-05-22T02:11:54.215Z,53.00
2019-05-22T02:16:57.696Z,52.50
2019-05-22T02:21:37.356Z,53.30
2019-05-22T02:26:39.118Z,52.30
2019-05-22T02:31:30.903Z,53.10
2019-05-22T02:36:23.044Z,52.10
2019-05-22T02:41:14.918Z,53.00
2019-05-22T02:46:06.378Z,52.30
2019-05-22T02:50:57.926Z,52.00
2019-05-22T02:55:49.586Z,53.00
2019-05-22T03:00:41.355Z,52.50
2019-05-22T03:05:33.074Z,52.80
2019-05-22T03:10:24.914Z,51.90
2019-05-22T03:15:16.917Z,51.20
2019-05-22T03:20:10.756Z,50.90
2019-05-22T03:25:05.125Z,51.10
2019-05-22T03:29:56.650Z,51.10
2019-05-22T03:34:48.934Z,51.10
2019-05-22T03:39:40.289Z,50.20
2019-05-22T03:44:34.768Z,50.50
2019-05-22T03:49:31.588Z,50.60
2019-05-22T03:54:18.490Z,50.10
2019-05-22T03:59:10.335Z,50.30
2019-05-22T04:04:01.871Z,51.00
2019-05-22T04:08:53.830Z,51.10
2019-05-22T04:13:45.568Z,50.00
2019-05-22T04:23:29.219Z,48.70
2019-05-22T04:28:20.952Z,48.80
2019-05-22T04:33:12.441Z,47.70
2019-05-22T04:43:00.103Z,47.50
2019-05-22T04:47:53.968Z,46.80
2019-05-22T04:52:45.778Z,47.00
2019-05-22T04:57:40.007Z,46.80
2019-05-22T05:02:33.004Z,45.40
2019-05-22T05:07:27.211Z,45.50
2019-05-22T05:12:21.182Z,44.90
2019-05-22T05:17:15.258Z,42.70
2019-05-22T05:22:06.970Z,43.20
2019-05-22T05:27:00.629Z,43.70
2019-05-22T05:31:54.254Z,43.70
2019-05-22T05:36:46.252Z,43.70
2019-05-22T05:46:36.165Z,43.30
2019-05-22T05:51:27.531Z,41.60
2019-05-22T05:56:21.192Z,40.30
2019-05-22T06:01:12.560Z,40.40
2019-05-22T06:06:03.952Z,39.70
2019-05-22T06:10:55.336Z,39.10
2019-05-22T06:15:48.400Z,38.90
2019-05-22T06:20:40.460Z,38.00
2019-05-22T06:25:31.869Z,37.50
2019-05-22T06:30:23.206Z,38.10
2019-05-22T06:35:16.857Z,37.60
2019-05-22T06:40:10.505Z,35.60
2019-05-22T06:45:03.912Z,35.40
2019-05-22T06:49:53.296Z,35.00
2019-05-22T06:54:44.758Z,33.80
2019-05-22T06:59:38.356Z,34.00
2019-05-22T07:04:29.734Z,34.70
2019-05-22T07:09:21.159Z,31.80
2019-05-22T07:14:12.717Z,32.30
2019-05-22T07:19:03.933Z,32.10
2019-05-22T07:23:55.266Z,31.30
2019-05-22T07:28:46.819Z,30.60
2019-05-22T07:33:38.122Z,29.80
2019-05-22T07:38:29.428Z,28.80
2019-05-22T07:43:20.752Z,28.00
2019-05-22T07:48:14.420Z,26.60
2019-05-22T07:53:05.816Z,26.30
2019-05-22T07:57:57.212Z,25.10
2019-05-22T08:02:48.563Z,24.80
2019-05-22T08:07:40.494Z,23.10
2019-05-22T08:12:33.638Z,23.50
2019-05-22T08:17:25.040Z,23.70
2019-05-22T08:22:18.669Z,23.40
2019-05-22T08:27:14.609Z,21.10
2019-05-22T08:32:06.128Z,20.60
2019-05-22T08:36:57.424Z,22.20
2019-05-22T08:41:48.771Z,21.40
2019-05-22T08:46:40.177Z,20.60
2019-05-22T08:51:33.867Z,21.20
2019-05-22T08:56:25.259Z,20.80
2019-05-22T09:01:16.692Z,20.60
2019-05-22T09:06:08.048Z,19.60
2019-05-22T09:10:59.452Z,19.90
2019-05-22T09:15:50.867Z,22.20
2019-05-22T09:20:50.339Z,20.00
2019-05-22T09:25:33.592Z,19.60
2019-05-22T09:30:25.041Z,19.00
2019-05-22T09:35:16.380Z,18.70
2019-05-22T09:40:10.083Z,17.70
2019-05-22T09:45:01.486Z,18.90
2019-05-22T09:49:52.933Z,16.60
2019-05-22T09:54:44.293Z,16.30
2019-05-22T09:59:35.652Z,17.80
2019-05-22T10:04:27.154Z,16.10
2019-05-22T10:09:20.641Z,15.50
2019-05-22T10:14:16.664Z,16.00
2019-05-22T10:19:12.472Z,15.40
2019-05-22T10:24:06.153Z,17.10
2019-05-22T10:28:57.575Z,14.50
2019-05-22T10:33:52.717Z,15.00
2019-05-22T10:38:40.446Z,14.50
2019-05-22T10:43:31.691Z,15.70
2019-05-22T10:48:23.120Z,15.30
2019-05-22T10:53:33.943Z,14.60
2019-05-22T10:58:05.928Z,12.70
2019-05-22T11:02:57.191Z,11.30
2019-05-22T11:07:48.642Z,12.50
2019-05-22T11:12:40.029Z,11.90
2019-05-22T11:17:31.350Z,13.00
2019-05-22T11:22:25.053Z,13.00
2019-05-22T11:27:16.482Z,12.70
2019-05-22T11:32:07.827Z,12.50
2019-05-22T11:36:59.142Z,12.40
2019-05-22T11:41:50.646Z,10.00
2019-05-22T11:46:42.015Z,10.40
2019-05-22T11:51:33.324Z,11.90
2019-05-22T11:56:24.766Z,11.40
2019-05-22T12:01:16.066Z,11.20
2019-05-22T12:06:07.536Z,11.60
2019-05-22T12:10:58.973Z,10.40
2019-05-22T12:15:50.376Z,11.40
2019-05-22T12:20:41.706Z,12.00
2019-05-22T12:25:38.241Z,12.60
2019-05-22T12:30:24.400Z,10.30
2019-05-22T12:35:18.059Z,9.50
2019-05-22T12:40:09.421Z,10.50
2019-05-22T12:45:00.868Z,12.10
2019-05-22T12:49:56.710Z,10.40
2019-05-22T12:54:53.346Z,10.50
2019-05-22T12:59:39.505Z,10.40
2019-05-22T13:04:30.965Z,12.00
2019-05-22T13:09:22.252Z,10.50
2019-05-22T13:14:13.684Z,10.30
2019-05-22T13:19:05.035Z,11.10
2019-05-22T13:23:56.500Z,9.00
2019-05-22T13:34:01.972Z,10.80
2019-05-22T13:38:53.408Z,10.10
2019-05-22T13:43:44.673Z,9.20
2019-05-22T13:48:36.213Z,10.80
2019-05-22T13:53:29.717Z,11.00
2019-05-22T13:58:21.135Z,9.50
2019-05-22T14:08:03.962Z,9.20
2019-05-22T14:12:55.320Z,9.30
2019-05-22T14:17:51.244Z,7.90
2019-05-22T14:22:42.690Z,8.40
2019-05-22T14:27:34.085Z,8.50
2019-05-22T14:32:30.895Z,8.70
2019-05-22T14:37:16.885Z,8.70
2019-05-22T14:42:08.216Z,7.50
2019-05-22T14:47:16.843Z,9.20
2019-05-22T14:51:51.007Z,9.50
2019-05-22T14:56:42.420Z,9.50
2019-05-22T15:01:33.766Z,9.50
2019-05-22T15:06:29.739Z,11.30
2019-05-22T15:11:21.101Z,11.10
2019-05-22T15:16:12.539Z,11.50
2019-05-22T15:21:03.847Z,11.00
2019-05-22T15:25:55.252Z,10.90
2019-05-22T15:30:46.601Z,11.80
2019-05-22T15:35:38.083Z,12.30
2019-05-22T15:40:29.422Z,12.80
2019-05-22T15:45:20.792Z,12.60
2019-05-22T15:50:12.196Z,14.10
2019-05-22T15:55:05.898Z,14.70
2019-05-22T15:59:59.492Z,12.90
2019-05-22T16:04:53.133Z,13.00
2019-05-22T16:09:46.783Z,12.10
2019-05-22T16:14:45.050Z,11.10
2019-05-22T16:19:36.510Z,11.30
2019-05-22T16:24:27.804Z,11.50
2019-05-22T16:29:21.571Z,12.70
2019-05-22T16:34:12.994Z,13.30
2019-05-22T16:39:06.644Z,12.60
2019-05-22T16:44:00.289Z,12.70
2019-05-22T16:48:51.713Z,10.30
2019-05-22T16:53:43.207Z,12.60
2019-05-22T16:58:34.467Z,12.00
2019-05-22T17:03:25.827Z,10.30
2019-05-22T17:08:17.250Z,11.40
2019-05-22T17:13:13.065Z,10.50
2019-05-22T17:18:06.790Z,11.30
2019-05-22T17:22:58.201Z,9.30
2019-05-22T17:27:49.763Z,10.70
2019-05-22T17:32:43.248Z,10.90
2019-05-22T17:37:36.872Z,10.70
2019-05-22T17:42:28.242Z,9.80
2019-05-22T17:47:19.730Z,11.30
2019-05-22T17:52:13.511Z,12.10
2019-05-22T17:57:06.954Z,12.20
2019-05-22T18:01:58.357Z,12.40
2019-05-22T18:06:49.913Z,12.90
2019-05-22T18:11:41.452Z,12.70
2019-05-22T18:16:32.875Z,13.80
2019-05-22T18:21:26.482Z,14.80
2019-05-22T18:26:20.145Z,14.80
2019-05-22T18:31:11.548Z,15.50
2019-05-22T18:36:03.162Z,15.60
2019-05-22T18:40:56.589Z,15.80
2019-05-22T18:45:48.144Z,15.70
2019-05-22T18:50:39.346Z,16.20
2019-05-22T18:55:30.768Z,18.00
2019-05-22T19:00:22.178Z,19.40
2019-05-22T19:05:13.628Z,20.30
2019-05-22T19:10:07.150Z,22.20
2019-05-22T19:15:00.826Z,22.70
2019-05-22T19:19:54.468Z,23.20
2019-05-22T19:24:45.965Z,24.80
2019-05-22T19:29:39.646Z,24.80
2019-05-22T19:34:31.031Z,25.30
2019-05-22T19:39:22.431Z,27.40
2019-05-22T19:44:13.797Z,28.80
2019-05-22T19:49:05.154Z,30.40
2019-05-22T19:53:56.521Z,29.90
2019-05-22T19:58:47.961Z,30.90
2019-05-22T20:03:46.134Z,31.60
2019-05-22T20:08:37.649Z,33.20
2019-05-22T20:13:28.968Z,32.80
2019-05-22T20:18:20.334Z,33.50
2019-05-22T20:23:12.194Z,34.00
2019-05-22T20:28:06.097Z,35.60
2019-05-22T20:32:57.831Z,35.80
2019-05-22T20:37:51.550Z,36.10
2019-05-22T20:42:42.911Z,35.70
2019-05-22T20:47:34.334Z,36.30
2019-05-22T20:52:26.296Z,36.50
2019-05-22T20:57:20.840Z,36.10
2019-05-22T21:02:12.810Z,36.90
2019-05-22T21:07:06.671Z,37.10
2019-05-22T21:11:58.402Z,36.00
2019-05-22T21:16:49.921Z,37.00
2019-05-22T21:21:41.206Z,38.00
2019-05-22T21:26:32.618Z,37.60
2019-05-22T21:31:23.955Z,37.90
2019-05-22T21:36:15.379Z,38.40
2019-05-22T21:41:06.704Z,38.70
2019-05-22T21:45:58.086Z,38.80
2019-05-22T21:50:49.486Z,38.50
2019-05-22T21:55:45.590Z,38.90
2019-05-22T22:00:34.582Z,38.60
2019-05-22T22:10:17.281Z,38.90
2019-05-22T22:15:08.704Z,39.10
2019-05-22T22:20:02.359Z,39.00
2019-05-22T22:24:55.961Z,39.60
2019-05-22T22:29:47.359Z,39.10
2019-05-22T22:34:41.169Z,39.70
2019-05-22T22:39:32.595Z,40.90
2019-05-22T22:44:24.028Z,40.80
2019-05-22T22:49:17.722Z,41.80
2019-05-22T22:54:09.164Z,41.90
2019-05-22T22:59:00.599Z,41.90
2019-05-22T23:03:54.168Z,41.70
2019-05-22T23:08:45.603Z,41.40
2019-05-22T23:13:36.976Z,41.40
2019-05-22T23:18:28.471Z,41.00
2019-05-22T23:23:21.990Z,41.80
2019-05-22T23:28:13.490Z,42.90
2019-05-22T23:33:07.193Z,41.90
2019-05-22T23:37:58.644Z,43.10
2019-05-22T23:42:49.928Z,42.50
2019-05-22T23:47:41.355Z,42.40
2019-05-22T23:52:32.715Z,43.20
2019-05-22T23:57:24.175Z,43.50
